Time;durP1;ratioP1;P1;durP2;ratioP2;P2;SDS_P1;SDS_P2;PMS_P1;PMS_P2;Temp;Humidity;BMP_temperature;BMP_pressure;BME280_temperature;BME280_humidity;BME280_pressure;Samples;Min_cycle;Max_cycle;Signal;HPM_P1;HPM_P2
2022/03/09 00:00:42;;;;;;;20.80;12.80;;;3.30;99.90;;;;;;4972991;28;20134;-73
2022/03/09 00:03:08;;;;;;;24.25;13.50;;;3.30;99.90;;;;;;5001271;28;20033;-73
2022/03/09 00:05:34;;;;;;;27.73;14.02;;;3.30;99.90;;;;;;4999171;28;20105;-72
2022/03/09 00:08:00;;;;;;;24.85;14.32;;;3.30;99.90;;;;;;4998138;28;20133;-72
2022/03/09 00:10:25;;;;;;;27.15;13.27;;;3.30;99.90;;;;;;4991987;28;20072;-73
2022/03/09 00:12:52;;;;;;;23.25;13.20;;;3.30;99.90;;;;;;4991517;28;20373;-73
2022/03/09 00:15:17;;;;;;;21.90;13.00;;;3.20;99.90;;;;;;5010110;28;20022;-73
2022/03/09 00:17:43;;;;;;;22.85;13.40;;;3.20;99.90;;;;;;4991088;28;20053;-73
2022/03/09 00:20:09;;;;;;;23.83;13.65;;;3.20;99.90;;;;;;5009349;28;20030;-72
2022/03/09 00:22:34;;;;;;;23.15;13.50;;;3.20;99.90;;;;;;4992135;28;20057;-72
2022/03/09 00:25:00;;;;;;;22.38;13.10;;;3.20;99.90;;;;;;5010032;28;20228;-72
2022/03/09 00:27:25;;;;;;;23.27;13.25;;;3.10;99.90;;;;;;5009616;28;20025;-72
2022/03/09 00:29:51;;;;;;;25.55;14.13;;;3.10;99.90;;;;;;4991636;28;20034;-73
2022/03/09 00:32:17;;;;;;;24.08;13.35;;;3.10;99.90;;;;;;4991395;28;20034;-72
2022/03/09 00:34:42;;;;;;;23.35;13.25;;;3.10;99.90;;;;;;4993442;28;20171;-72
2022/03/09 00:37:08;;;;;;;21.75;12.82;;;3.00;99.90;;;;;;5009442;28;20060;-72
2022/03/09 00:39:34;;;;;;;24.42;12.75;;;3.00;99.90;;;;;;4994323;28;20038;-72
2022/03/09 00:41:59;;;;;;;23.77;13.00;;;3.00;99.90;;;;;;4990332;28;20113;-72
2022/03/09 00:44:25;;;;;;;24.02;13.23;;;3.10;99.90;;;;;;4990155;28;20117;-72
2022/03/09 00:46:50;;;;;;;21.90;12.57;;;3.00;99.90;;;;;;4984380;28;20107;-72
2022/03/09 00:49:16;;;;;;;23.48;13.23;;;3.00;99.90;;;;;;4998727;28;20036;-72
2022/03/09 00:51:42;;;;;;;23.13;13.13;;;3.10;99.90;;;;;;5007011;28;20095;-72
2022/03/09 00:54:07;;;;;;;24.95;13.50;;;3.10;99.90;;;;;;5009626;28;20030;-72
2022/03/09 00:56:34;;;;;;;22.85;13.68;;;3.10;99.90;;;;;;4990330;28;20034;-73
2022/03/09 00:58:59;;;;;;;22.67;12.80;;;3.10;99.90;;;;;;4982172;28;20117;-72
2022/03/09 01:01:25;;;;;;;22.90;12.52;;;3.10;99.90;;;;;;4996940;28;20066;-73
2022/03/09 01:03:50;;;;;;;24.58;13.18;;;3.10;99.90;;;;;;4988530;28;20100;-72
2022/03/09 01:06:16;;;;;;;22.90;12.98;;;3.10;99.90;;;;;;4995719;28;20030;-73
2022/03/09 01:08:42;;;;;;;24.38;12.95;;;3.10;99.90;;;;;;4997028;28;20027;-73
2022/03/09 01:11:07;;;;;;;22.95;12.82;;;3.00;99.90;;;;;;4989926;28;20027;-72
2022/03/09 01:13:34;;;;;;;22.65;13.68;;;3.10;99.90;;;;;;4990019;28;20037;-72
2022/03/09 01:15:59;;;;;;;22.98;12.88;;;3.00;99.90;;;;;;4972814;28;20035;-72
2022/03/09 01:18:25;;;;;;;24.45;13.77;;;3.00;99.90;;;;;;4989333;28;20104;-73
2022/03/09 01:20:50;;;;;;;22.35;12.70;;;3.00;99.90;;;;;;4995992;28;20037;-72
2022/03/09 01:23:16;;;;;;;22.33;12.85;;;3.00;99.90;;;;;;5009526;28;20030;-72
2022/03/09 01:25:41;;;;;;;24.75;14.13;;;3.00;99.90;;;;;;4992021;28;20033;-72
2022/03/09 01:28:07;;;;;;;26.42;13.80;;;2.90;99.90;;;;;;4993846;28;20034;-72
2022/03/09 01:30:33;;;;;;;25.83;14.68;;;2.90;99.90;;;;;;4994503;28;20034;-73
2022/03/09 01:32:58;;;;;;;21.75;12.95;;;2.90;99.90;;;;;;5010306;28;20105;-73
2022/03/09 01:35:24;;;;;;;27.17;13.50;;;2.90;99.90;;;;;;5004945;28;20034;-72
2022/03/09 01:37:49;;;;;;;20.52;12.88;;;2.80;99.90;;;;;;4998279;28;20026;-72
2022/03/09 01:40:15;;;;;;;25.75;13.75;;;2.80;99.90;;;;;;5011876;28;20053;-72
2022/03/09 01:42:42;;;;;;;23.13;13.43;;;2.80;99.90;;;;;;4993512;28;20037;-73
2022/03/09 01:45:11;;;;;;;22.73;12.73;;;2.80;99.90;;;;;;5012815;28;20036;-73
2022/03/09 01:47:37;;;;;;;24.95;13.18;;;2.80;99.90;;;;;;4992891;28;20040;-73
2022/03/09 01:50:05;;;;;;;23.02;12.82;;;2.80;99.90;;;;;;5000213;28;20032;-72
2022/03/09 01:52:31;;;;;;;24.60;12.48;;;2.80;99.90;;;;;;4979320;28;20026;-73
2022/03/09 01:54:57;;;;;;;22.75;12.68;;;2.80;99.90;;;;;;5003295;28;20041;-72
2022/03/09 01:57:23;;;;;;;23.02;13.02;;;2.90;99.90;;;;;;4998793;28;20033;-73
2022/03/09 01:59:50;;;;;;;22.77;12.55;;;2.90;99.90;;;;;;5009603;28;20029;-72
2022/03/09 02:02:17;;;;;;;21.20;12.55;;;2.90;99.90;;;;;;5010895;28;20133;-73
2022/03/09 02:04:43;;;;;;;22.60;12.63;;;2.90;99.90;;;;;;5010685;28;20120;-72
2022/03/09 02:07:09;;;;;;;21.70;12.02;;;2.90;99.90;;;;;;5011605;28;20113;-72
2022/03/09 02:09:41;;;;;;;24.40;12.90;;;2.90;99.90;;;;;;5000344;28;20026;-73
2022/03/09 02:12:09;;;;;;;23.90;13.23;;;2.90;99.90;;;;;;4991377;28;20030;-73
2022/03/09 02:14:40;;;;;;;22.23;12.65;;;2.90;99.90;;;;;;4994579;28;20435;-73
2022/03/09 02:17:10;;;;;;;24.17;12.70;;;2.90;99.90;;;;;;4992532;28;20670;-73
2022/03/09 02:19:37;;;;;;;23.00;13.40;;;3.00;99.90;;;;;;5002966;28;20026;-73
2022/03/09 02:22:33;;;;;;;23.55;12.70;;;3.00;99.90;;;;;;5012046;28;20060;-72
2022/03/09 02:25:00;;;;;;;21.42;12.43;;;3.00;99.90;;;;;;5011923;28;20049;-73
2022/03/09 02:27:26;;;;;;;22.00;12.02;;;3.00;99.90;;;;;;5010784;28;20026;-72
2022/03/09 02:29:53;;;;;;;21.27;12.23;;;3.00;99.90;;;;;;5011252;28;20037;-73
2022/03/09 02:32:19;;;;;;;26.27;12.95;;;3.00;99.90;;;;;;5011373;28;20414;-72
2022/03/09 02:34:45;;;;;;;22.77;12.02;;;3.00;99.90;;;;;;5011163;28;20030;-73
2022/03/09 02:37:11;;;;;;;21.65;12.38;;;2.90;99.90;;;;;;4982325;28;20038;-73
2022/03/09 02:39:37;;;;;;;23.88;13.20;;;2.90;99.90;;;;;;4993099;28;20129;-73
2022/03/09 02:42:03;;;;;;;23.13;12.77;;;2.90;99.90;;;;;;4992264;28;20414;-72
2022/03/09 02:44:29;;;;;;;24.48;13.45;;;2.90;99.90;;;;;;4992075;28;20117;-72
2022/03/09 02:46:55;;;;;;;24.17;13.63;;;2.90;99.90;;;;;;4998328;28;20494;-71
2022/03/09 02:49:21;;;;;;;21.65;12.32;;;2.80;99.90;;;;;;4993652;28;20037;-71
2022/03/09 02:51:47;;;;;;;23.02;12.88;;;2.80;99.90;;;;;;4999095;28;20018;-71
2022/03/09 02:54:13;;;;;;;25.15;13.05;;;2.80;99.90;;;;;;5011419;28;20470;-71
2022/03/09 02:56:38;;;;;;;22.58;12.35;;;2.80;99.90;;;;;;5011228;28;20018;-72
2022/03/09 02:59:04;;;;;;;21.70;12.52;;;2.80;99.90;;;;;;4965877;28;20045;-72
2022/03/09 03:01:29;;;;;;;25.13;13.55;;;2.80;99.90;;;;;;4974657;28;20375;-71
2022/03/09 03:03:55;;;;;;;21.80;13.13;;;2.80;99.90;;;;;;5010808;28;20049;-72
2022/03/09 03:06:21;;;;;;;22.55;12.75;;;2.80;99.90;;;;;;5009531;28;20033;-71
2022/03/09 03:08:46;;;;;;;24.20;12.80;;;2.80;99.90;;;;;;4999473;28;20101;-71
2022/03/09 03:11:12;;;;;;;24.85;12.93;;;2.80;99.90;;;;;;4991811;28;20109;-71
2022/03/09 03:13:39;;;;;;;23.55;12.93;;;2.80;99.90;;;;;;4974081;28;20412;-71
2022/03/09 03:16:06;;;;;;;21.58;12.20;;;2.80;99.90;;;;;;4991756;28;20080;-72
2022/03/09 03:18:32;;;;;;;25.23;13.07;;;2.80;99.90;;;;;;4992533;28;20137;-71
2022/03/09 03:20:58;;;;;;;20.50;12.07;;;2.70;99.90;;;;;;4992560;28;20117;-72
2022/03/09 03:23:26;;;;;;;23.80;12.75;;;2.80;99.90;;;;;;4977416;28;20778;-71
2022/03/09 03:25:53;;;;;;;21.52;12.38;;;2.70;99.90;;;;;;4975218;28;20026;-71
2022/03/09 03:28:20;;;;;;;23.00;12.45;;;2.70;99.90;;;;;;5006105;28;20038;-71
2022/03/09 03:30:46;;;;;;;22.05;12.75;;;2.70;99.90;;;;;;4999131;28;20042;-71
2022/03/09 03:33:13;;;;;;;22.00;12.20;;;2.70;99.90;;;;;;5010512;28;20054;-71
2022/03/09 03:35:38;;;;;;;22.83;12.50;;;2.80;99.90;;;;;;4998778;28;20053;-72
2022/03/09 03:38:04;;;;;;;25.52;13.18;;;2.70;99.90;;;;;;4996288;28;20522;-71
2022/03/09 03:40:30;;;;;;;23.23;13.40;;;2.70;99.90;;;;;;5010865;28;20400;-71
2022/03/09 03:42:56;;;;;;;23.17;12.70;;;2.70;99.90;;;;;;5010359;28;20482;-72
2022/03/09 03:45:21;;;;;;;22.52;12.15;;;2.70;99.90;;;;;;5010327;28;20482;-71
2022/03/09 03:47:47;;;;;;;22.67;12.48;;;2.80;99.90;;;;;;5010093;28;20041;-71
2022/03/09 03:50:13;;;;;;;21.08;12.63;;;2.80;99.90;;;;;;5007897;28;20033;-72
2022/03/09 03:52:39;;;;;;;22.83;12.45;;;2.70;99.90;;;;;;5010002;28;20367;-72
2022/03/09 03:55:05;;;;;;;23.23;12.38;;;2.70;99.90;;;;;;5010065;28;20026;-72
2022/03/09 03:57:30;;;;;;;21.58;12.77;;;2.70;99.90;;;;;;5010388;28;20156;-71
2022/03/09 03:59:56;;;;;;;21.75;11.85;;;2.70;99.90;;;;;;4996353;28;20085;-71
2022/03/09 04:02:22;;;;;;;21.48;12.80;;;2.70;99.90;;;;;;4991870;28;20248;-71
2022/03/09 04:04:47;;;;;;;24.52;12.95;;;2.70;99.90;;;;;;4990939;28;20022;-71
2022/03/09 04:07:13;;;;;;;21.08;12.48;;;2.60;99.90;;;;;;4991851;28;20058;-71
2022/03/09 04:09:38;;;;;;;21.60;12.82;;;2.60;99.90;;;;;;4991609;28;20406;-72
2022/03/09 04:12:04;;;;;;;22.63;13.00;;;2.50;99.90;;;;;;4993885;28;20061;-72
2022/03/09 04:14:30;;;;;;;22.13;12.85;;;2.50;99.90;;;;;;5010060;28;20041;-71
2022/03/09 04:16:55;;;;;;;22.15;12.45;;;2.50;99.90;;;;;;5009909;28;20473;-72
2022/03/09 04:19:21;;;;;;;20.52;11.77;;;2.50;99.90;;;;;;4979621;28;20045;-72
2022/03/09 04:21:46;;;;;;;25.63;12.15;;;2.50;99.90;;;;;;5005505;28;20073;-71
2022/03/09 04:24:12;;;;;;;20.73;12.75;;;2.50;99.90;;;;;;4994565;28;20490;-71
2022/03/09 04:26:38;;;;;;;24.15;12.05;;;2.50;99.90;;;;;;4990307;28;20031;-72
2022/03/09 04:29:03;;;;;;;22.67;12.88;;;2.50;99.90;;;;;;4998734;28;20022;-72
2022/03/09 04:31:29;;;;;;;22.35;12.13;;;2.50;99.90;;;;;;4990398;28;20503;-71
2022/03/09 04:33:55;;;;;;;22.10;12.15;;;2.50;99.90;;;;;;4997886;28;20474;-72
2022/03/09 04:36:20;;;;;;;30.10;12.43;;;2.50;99.90;;;;;;5007897;28;20022;-71
2022/03/09 04:38:46;;;;;;;20.80;10.82;;;2.50;99.90;;;;;;4994560;28;20022;-71
2022/03/09 04:41:12;;;;;;;21.60;11.25;;;2.50;99.90;;;;;;4992114;28;20057;-71
2022/03/09 04:43:37;;;;;;;20.55;11.30;;;2.60;99.90;;;;;;4993772;28;20166;-71
2022/03/09 04:46:03;;;;;;;18.70;10.80;;;2.60;99.90;;;;;;4972863;28;20394;-72
2022/03/09 04:48:28;;;;;;;20.20;10.75;;;2.60;99.90;;;;;;4990436;28;20110;-71
2022/03/09 04:50:54;;;;;;;16.85;10.05;;;2.70;99.90;;;;;;5006737;28;20490;-72
2022/03/09 04:53:19;;;;;;;20.52;11.45;;;2.70;99.90;;;;;;5004895;28;20471;-72
2022/03/09 04:55:45;;;;;;;19.65;11.73;;;2.70;99.90;;;;;;4989897;28;20457;-72
2022/03/09 04:58:11;;;;;;;19.40;11.25;;;2.70;99.90;;;;;;4990192;28;20022;-72
2022/03/09 05:00:37;;;;;;;21.67;10.93;;;2.70;99.90;;;;;;5010682;28;20033;-72
2022/03/09 05:03:02;;;;;;;19.58;10.55;;;2.70;99.90;;;;;;4996217;28;20030;-71
2022/03/09 05:05:28;;;;;;;19.48;10.73;;;2.70;99.90;;;;;;5013013;28;20034;-71
2022/03/09 05:07:53;;;;;;;21.58;11.45;;;2.70;99.90;;;;;;5013506;28;20060;-71
2022/03/09 05:10:19;;;;;;;19.77;11.15;;;2.70;99.90;;;;;;4997628;28;20382;-71
2022/03/09 05:12:44;;;;;;;20.63;11.25;;;2.70;99.90;;;;;;4993825;28;20026;-71
2022/03/09 05:15:10;;;;;;;21.35;11.18;;;2.70;99.90;;;;;;4994063;28;20026;-71
2022/03/09 05:17:41;;;;;;;21.60;11.60;;;2.60;99.90;;;;;;5011540;28;20065;-71
2022/03/09 05:20:07;;;;;;;18.42;10.85;;;2.60;99.90;;;;;;5011459;28;20065;-71
2022/03/09 05:22:32;;;;;;;18.90;11.27;;;2.60;99.90;;;;;;4994762;28;20045;-71
2022/03/09 05:24:58;;;;;;;19.58;11.40;;;2.60;99.90;;;;;;5008745;28;20042;-71
2022/03/09 05:27:27;;;;;;;20.90;11.63;;;2.60;99.90;;;;;;4993900;28;20030;-72
2022/03/09 05:29:53;;;;;;;21.73;11.18;;;2.60;99.90;;;;;;4994643;28;20070;-71
2022/03/09 05:32:18;;;;;;;22.83;11.98;;;2.60;99.90;;;;;;5008354;28;20112;-71
2022/03/09 05:34:46;;;;;;;19.90;11.10;;;2.60;99.90;;;;;;5004184;28;20521;-72
2022/03/09 05:37:12;;;;;;;21.15;11.77;;;2.60;99.90;;;;;;4999099;28;20102;-71
2022/03/09 05:39:37;;;;;;;20.25;11.13;;;2.60;99.90;;;;;;5010829;28;20076;-72
2022/03/09 05:42:03;;;;;;;23.60;11.85;;;2.50;99.90;;;;;;4998307;28;20066;-72
2022/03/09 05:44:29;;;;;;;23.23;12.70;;;2.50;99.90;;;;;;5000372;28;20040;-72
2022/03/09 05:46:56;;;;;;;20.83;11.55;;;2.40;99.90;;;;;;5011586;28;20032;-72
2022/03/09 05:49:22;;;;;;;20.23;11.90;;;2.40;99.90;;;;;;5006889;28;20042;-71
2022/03/09 05:51:48;;;;;;;22.63;11.35;;;2.40;99.90;;;;;;4975736;28;20026;-71
2022/03/09 05:54:13;;;;;;;19.63;12.00;;;2.30;99.90;;;;;;4993797;28;20425;-71
2022/03/09 05:56:39;;;;;;;22.58;12.05;;;2.30;99.90;;;;;;5004476;28;20033;-71
2022/03/09 05:59:05;;;;;;;23.20;12.15;;;2.20;99.90;;;;;;5006430;28;20113;-71
2022/03/09 06:01:31;;;;;;;24.00;12.43;;;2.10;99.90;;;;;;5001608;28;20108;-71
2022/03/09 06:03:56;;;;;;;22.40;12.48;;;2.10;99.90;;;;;;4992268;28;20025;-71
2022/03/09 06:06:22;;;;;;;25.63;13.00;;;2.10;99.90;;;;;;4997412;28;20030;-71
2022/03/09 06:08:48;;;;;;;20.42;12.15;;;2.00;99.90;;;;;;5008387;28;20328;-71
2022/03/09 06:11:13;;;;;;;28.20;13.85;;;2.00;99.90;;;;;;5010464;28;20036;-71
2022/03/09 06:13:39;;;;;;;23.15;13.48;;;1.90;99.90;;;;;;5004820;28;20126;-71
2022/03/09 06:16:05;;;;;;;24.08;13.15;;;1.90;99.90;;;;;;4974582;28;20029;-71
2022/03/09 06:18:31;;;;;;;24.27;13.32;;;1.90;99.90;;;;;;5008037;28;20050;-71
2022/03/09 06:20:57;;;;;;;23.05;13.32;;;1.90;99.90;;;;;;5009294;28;20434;-71
2022/03/09 06:23:22;;;;;;;25.83;13.70;;;1.80;99.90;;;;;;5004233;28;20044;-71
2022/03/09 06:25:48;;;;;;;27.13;14.38;;;1.80;99.90;;;;;;4999335;28;20087;-70
2022/03/09 06:28:14;;;;;;;27.92;14.65;;;1.90;99.90;;;;;;5005854;28;20467;-70
2022/03/09 06:30:40;;;;;;;28.25;14.20;;;1.80;99.90;;;;;;4999465;28;20470;-71
2022/03/09 06:33:06;;;;;;;23.73;13.18;;;1.80;99.90;;;;;;4986119;28;20029;-71
2022/03/09 06:35:31;;;;;;;27.73;15.18;;;1.80;99.90;;;;;;4998261;28;20030;-70
2022/03/09 06:37:57;;;;;;;27.00;15.10;;;1.80;99.90;;;;;;5006123;28;20481;-71
2022/03/09 06:40:23;;;;;;;25.80;14.13;;;1.80;99.90;;;;;;5007318;28;20358;-70
2022/03/09 06:42:49;;;;;;;28.65;14.55;;;1.80;99.90;;;;;;4999465;28;20546;-70
2022/03/09 06:45:14;;;;;;;27.00;13.98;;;1.80;99.90;;;;;;5006792;28;20026;-71
2022/03/09 06:47:40;;;;;;;25.95;14.20;;;1.80;99.90;;;;;;5007081;28;20019;-71
2022/03/09 06:50:09;;;;;;;26.73;14.10;;;1.80;99.90;;;;;;5004148;28;20110;-71
2022/03/09 06:52:35;;;;;;;25.83;13.02;;;1.90;99.90;;;;;;5005701;28;20113;-71
2022/03/09 06:55:03;;;;;;;26.98;14.40;;;1.90;99.90;;;;;;5010446;28;20077;-71
2022/03/09 06:57:32;;;;;;;26.40;14.20;;;1.90;99.90;;;;;;5007371;28;20159;-71
2022/03/09 06:59:57;;;;;;;27.17;14.02;;;1.90;99.90;;;;;;5010486;28;20465;-71
2022/03/09 07:02:23;;;;;;;25.67;13.82;;;1.90;99.90;;;;;;5000502;28;20029;-71
2022/03/09 07:04:48;;;;;;;26.20;14.00;;;2.00;99.90;;;;;;5001578;28;20025;-71
2022/03/09 07:07:14;;;;;;;29.02;13.80;;;2.00;99.90;;;;;;5006299;28;20096;-71
2022/03/09 07:09:40;;;;;;;26.65;14.60;;;2.00;99.90;;;;;;5006868;28;20479;-70
2022/03/09 07:12:06;;;;;;;28.95;13.93;;;2.10;99.90;;;;;;5004214;28;20029;-70
2022/03/09 07:14:31;;;;;;;31.27;14.98;;;2.10;99.90;;;;;;5004959;28;20109;-70
2022/03/09 07:16:57;;;;;;;27.45;14.40;;;2.10;99.90;;;;;;5006470;28;20073;-70
2022/03/09 07:19:22;;;;;;;27.75;14.27;;;2.20;99.90;;;;;;5009423;28;20478;-70
2022/03/09 07:21:48;;;;;;;26.48;14.32;;;2.20;99.90;;;;;;5006740;28;20030;-70
2022/03/09 07:24:14;;;;;;;24.00;13.90;;;2.30;99.90;;;;;;5006144;28;20478;-71
2022/03/09 07:26:41;;;;;;;28.02;13.95;;;2.30;99.90;;;;;;5000252;28;20025;-71
2022/03/09 07:29:11;;;;;;;25.65;13.10;;;2.30;99.90;;;;;;5003475;28;20034;-70
2022/03/09 07:31:37;;;;;;;25.00;13.80;;;2.40;99.90;;;;;;5006907;28;20048;-70
2022/03/09 07:34:03;;;;;;;25.77;13.77;;;2.40;99.90;;;;;;5005911;28;20022;-69
2022/03/09 07:36:29;;;;;;;25.90;13.85;;;2.50;99.90;;;;;;5009263;28;20103;-70
2022/03/09 07:38:54;;;;;;;26.25;13.90;;;2.60;99.90;;;;;;5006082;28;20033;-71
2022/03/09 07:41:20;;;;;;;27.08;13.50;;;2.60;99.90;;;;;;5005184;28;20052;-70
2022/03/09 07:43:46;;;;;;;27.25;13.80;;;2.70;99.90;;;;;;5005497;28;20104;-70
2022/03/09 07:46:11;;;;;;;26.30;13.02;;;2.80;99.90;;;;;;5009848;28;20243;-70
2022/03/09 07:48:37;;;;;;;23.90;13.30;;;2.80;99.90;;;;;;5003431;28;20022;-71
2022/03/09 07:51:02;;;;;;;26.55;13.43;;;2.90;99.90;;;;;;4990756;28;20014;-70
2022/03/09 07:53:28;;;;;;;26.52;13.75;;;3.00;99.90;;;;;;5009475;28;20022;-71
2022/03/09 07:55:53;;;;;;;28.17;13.77;;;3.00;99.90;;;;;;4979303;28;20034;-72
2022/03/09 07:58:19;;;;;;;28.38;13.77;;;3.10;99.90;;;;;;4989838;28;20453;-72
2022/03/09 08:00:45;;;;;;;30.42;14.00;;;3.20;99.90;;;;;;5002121;28;20112;-72
2022/03/09 08:03:10;;;;;;;24.55;13.13;;;3.20;99.90;;;;;;5002551;28;20038;-72
2022/03/09 08:05:36;;;;;;;23.80;13.38;;;3.30;99.90;;;;;;4988209;28;20141;-72
2022/03/09 08:08:01;;;;;;;26.75;14.60;;;3.40;99.90;;;;;;5009180;28;20450;-71
2022/03/09 08:10:27;;;;;;;24.13;13.52;;;3.50;99.90;;;;;;4989067;28;20180;-72
2022/03/09 08:12:53;;;;;;;25.55;13.00;;;3.60;99.90;;;;;;4998145;28;20091;-72
2022/03/09 08:15:18;;;;;;;31.33;13.38;;;3.70;99.90;;;;;;5004332;28;20068;-72
2022/03/09 08:17:44;;;;;;;26.05;13.80;;;3.80;99.90;;;;;;5002545;28;20066;-72
2022/03/09 08:20:10;;;;;;;23.60;12.95;;;3.90;99.90;;;;;;4991969;28;20030;-72
2022/03/09 08:22:35;;;;;;;23.60;13.65;;;4.00;99.90;;;;;;4990824;28;20122;-73
2022/03/09 08:25:02;;;;;;;26.90;14.48;;;4.10;99.90;;;;;;4972788;28;20018;-73
2022/03/09 08:27:27;;;;;;;29.35;14.30;;;4.20;99.90;;;;;;5008024;28;20451;-72
2022/03/09 08:29:53;;;;;;;28.58;13.77;;;4.30;99.90;;;;;;5001098;28;20030;-72
2022/03/09 08:32:19;;;;;;;25.60;13.23;;;4.50;99.90;;;;;;5003101;28;20045;-72
2022/03/09 08:34:46;;;;;;;28.13;13.80;;;4.60;99.90;;;;;;5007552;28;20402;-72
2022/03/09 08:37:12;;;;;;;25.42;14.25;;;4.80;99.90;;;;;;5008801;28;20026;-73
2022/03/09 08:39:38;;;;;;;30.85;14.85;;;4.90;99.90;;;;;;5009569;28;20129;-73
2022/03/09 08:42:04;;;;;;;27.60;14.77;;;5.10;99.90;;;;;;5006713;28;20145;-72
2022/03/09 08:44:29;;;;;;;29.75;13.63;;;5.20;99.90;;;;;;5007034;28;20442;-71
2022/03/09 08:46:55;;;;;;;27.38;14.52;;;5.40;99.90;;;;;;4990123;28;20094;-70
2022/03/09 08:49:20;;;;;;;26.88;14.20;;;5.50;99.90;;;;;;4991062;28;20565;-72
2022/03/09 08:51:46;;;;;;;28.02;13.82;;;5.70;99.90;;;;;;4998912;28;20141;-72
2022/03/09 08:54:11;;;;;;;27.60;14.70;;;5.90;99.90;;;;;;5009234;28;20073;-72
2022/03/09 08:56:37;;;;;;;27.95;14.68;;;6.10;99.90;;;;;;5009467;28;20457;-72
2022/03/09 08:59:03;;;;;;;29.50;14.88;;;6.30;99.90;;;;;;5008237;28;20033;-72
2022/03/09 09:01:28;;;;;;;28.10;15.07;;;6.50;99.80;;;;;;4990112;28;20135;-72
2022/03/09 09:03:54;;;;;;;29.42;14.13;;;6.60;98.90;;;;;;4989863;28;20109;-72
2022/03/09 09:06:20;;;;;;;27.00;14.25;;;6.80;99.10;;;;;;5006483;28;20403;-72
2022/03/09 09:08:45;;;;;;;26.80;14.75;;;7.00;97.80;;;;;;5009929;28;20053;-72
2022/03/09 09:11:11;;;;;;;27.63;15.02;;;7.10;97.20;;;;;;5007926;28;20026;-73
2022/03/09 09:13:36;;;;;;;26.60;14.40;;;7.30;97.00;;;;;;5002231;28;20026;-73
2022/03/09 09:16:02;;;;;;;30.10;16.02;;;7.50;95.90;;;;;;5008163;28;20064;-72
2022/03/09 09:18:28;;;;;;;29.48;14.73;;;7.70;93.90;;;;;;5009112;28;20046;-72
2022/03/09 09:20:54;;;;;;;32.78;15.38;;;7.80;93.40;;;;;;4995769;28;20046;-73
2022/03/09 09:23:21;;;;;;;27.70;15.00;;;8.00;92.70;;;;;;5008014;28;20046;-72
2022/03/09 09:25:46;;;;;;;35.00;16.63;;;8.20;92.70;;;;;;5000301;28;20492;-73
2022/03/09 09:28:12;;;;;;;26.80;15.18;;;8.40;91.60;;;;;;4995218;28;20070;-73
2022/03/09 09:30:38;;;;;;;29.25;15.45;;;8.60;90.80;;;;;;4991697;28;20129;-73
2022/03/09 09:33:04;;;;;;;31.23;16.52;;;8.70;90.10;;;;;;5000293;28;20146;-73
2022/03/09 09:35:30;;;;;;;28.33;15.70;;;8.90;88.20;;;;;;4998145;28;20026;-73
2022/03/09 09:37:56;;;;;;;34.38;17.02;;;9.00;87.00;;;;;;4989723;28;20109;-72
2022/03/09 09:40:23;;;;;;;38.83;17.20;;;9.10;84.70;;;;;;4992259;28;20103;-73
2022/03/09 09:42:50;;;;;;;33.30;17.27;;;9.20;82.50;;;;;;4998001;28;20145;-73
2022/03/09 09:45:15;;;;;;;44.80;17.85;;;9.30;80.20;;;;;;5008903;28;20033;-73
2022/03/09 09:47:41;;;;;;;40.50;17.55;;;9.40;79.90;;;;;;4998642;28;20033;-72
2022/03/09 09:50:07;;;;;;;34.40;16.38;;;9.50;78.70;;;;;;5012583;28;20033;-73
2022/03/09 09:52:33;;;;;;;34.63;17.75;;;9.60;77.00;;;;;;4994646;28;20033;-73
2022/03/09 09:55:02;;;;;;;35.05;17.10;;;9.70;76.50;;;;;;4994748;28;20029;-73
2022/03/09 09:57:29;;;;;;;31.30;16.83;;;9.80;75.90;;;;;;5012539;28;20026;-73
2022/03/09 09:59:56;;;;;;;34.50;17.58;;;9.90;75.60;;;;;;5006595;28;20052;-73
2022/03/09 10:02:21;;;;;;;37.88;18.50;;;10.00;75.50;;;;;;4994041;28;20088;-73
2022/03/09 10:04:50;;;;;;;34.45;18.20;;;10.20;74.70;;;;;;5011566;28;20425;-73
2022/03/09 10:07:16;;;;;;;38.25;17.83;;;10.30;73.80;;;;;;5010634;28;20088;-73
2022/03/09 10:09:42;;;;;;;38.38;18.58;;;10.50;73.30;;;;;;4992511;28;20113;-73
2022/03/09 10:12:13;;;;;;;33.95;17.60;;;10.60;71.60;;;;;;5003484;28;20442;-73
2022/03/09 10:14:53;;;;;;;34.95;17.95;;;10.70;71.10;;;;;;5012380;28;20083;-73
2022/03/09 10:17:21;;;;;;;34.40;17.98;;;10.80;71.10;;;;;;5011887;28;20081;-72
2022/03/09 10:19:52;;;;;;;37.10;18.83;;;11.00;71.30;;;;;;4995415;28;20026;-73
2022/03/09 10:22:31;;;;;;;32.83;18.45;;;11.10;69.70;;;;;;4992336;28;20426;-73
2022/03/09 10:25:17;;;;;;;39.28;19.05;;;11.30;68.90;;;;;;4974701;28;20126;-73
2022/03/09 10:27:44;;;;;;;;;;;11.40;66.70;;;;;;4992723;28;20462;-73
2022/03/09 10:30:13;;;;;;;39.05;19.50;;;11.40;65.60;;;;;;4999675;28;19913;-73
2022/03/09 10:32:43;;;;;;;36.40;19.35;;;11.40;67.20;;;;;;5011258;28;20417;-73
2022/03/09 10:35:10;;;;;;;38.40;18.30;;;11.60;66.10;;;;;;5011696;28;20426;-74
2022/03/09 10:37:40;;;;;;;40.35;19.60;;;11.70;67.00;;;;;;5011213;28;20026;-74
2022/03/09 10:40:18;;;;;;;39.15;19.92;;;11.90;66.00;;;;;;4991998;28;20084;-73
2022/03/09 10:42:45;;;;;;;40.30;20.27;;;12.00;65.60;;;;;;4974057;28;20038;-73
2022/03/09 10:45:12;;;;;;;35.90;19.13;;;12.10;65.30;;;;;;5006420;28;20535;-73
2022/03/09 10:47:43;;;;;;;39.92;19.38;;;12.20;63.60;;;;;;4992487;28;20034;-73
2022/03/09 10:50:17;;;;;;;36.95;20.08;;;12.30;63.10;;;;;;4974231;28;20442;-74
2022/03/09 10:52:51;;;;;;;40.67;20.10;;;12.50;63.30;;;;;;4991865;28;20559;-73
2022/03/09 10:55:35;;;;;;;43.67;22.90;;;12.60;63.40;;;;;;5011132;28;20037;-73
2022/03/09 10:58:17;;;;;;;37.22;20.73;;;12.80;62.20;;;;;;5010233;28;20402;-74
2022/03/09 11:00:46;;;;;;;38.53;20.92;;;12.90;62.30;;;;;;4991411;28;20030;-73
2022/03/09 11:03:17;;;;;;;37.55;20.77;;;13.00;61.30;;;;;;4989265;28;20026;-73
2022/03/09 11:05:48;;;;;;;39.85;19.95;;;13.10;60.50;;;;;;5010000;28;20030;-73
2022/03/09 11:08:15;;;;;;;44.97;21.65;;;13.20;61.00;;;;;;5010916;28;20041;-73
2022/03/09 11:10:43;;;;;;;39.80;21.50;;;13.30;60.90;;;;;;5010648;28;20066;-73
2022/03/09 11:13:09;;;;;;;45.33;20.45;;;13.40;60.60;;;;;;5009949;28;20029;-74
2022/03/09 11:15:35;;;;;;;41.70;21.23;;;13.40;59.90;;;;;;5010791;28;20021;-73
2022/03/09 11:18:01;;;;;;;48.95;21.25;;;13.50;59.90;;;;;;5010477;28;20113;-74
2022/03/09 11:20:26;;;;;;;43.72;22.05;;;13.40;58.70;;;;;;5010417;28;20029;-73
2022/03/09 11:22:52;;;;;;;41.38;21.80;;;13.40;58.80;;;;;;5010583;28;20030;-73
2022/03/09 11:25:22;;;;;;;47.28;21.73;;;13.50;58.90;;;;;;5009025;28;20050;-74
2022/03/09 11:27:50;;;;;;;41.33;21.83;;;13.60;58.80;;;;;;5002852;28;20035;-73
2022/03/09 11:30:28;;;;;;;41.45;21.75;;;13.70;58.80;;;;;;4991418;28;20057;-73
2022/03/09 11:32:58;;;;;;;39.63;20.88;;;13.90;58.10;;;;;;4991079;28;20030;-74
2022/03/09 11:35:30;;;;;;;41.58;22.00;;;13.90;58.30;;;;;;4990824;28;20363;-73
2022/03/09 11:37:56;;;;;;;45.65;22.38;;;14.00;57.90;;;;;;4991115;28;20026;-73
2022/03/09 11:40:22;;;;;;;42.00;21.63;;;14.00;57.00;;;;;;4999983;28;20512;-73
2022/03/09 11:42:47;;;;;;;43.67;21.95;;;14.10;56.40;;;;;;5002889;28;20104;-73
2022/03/09 11:45:22;;;;;;;42.53;21.48;;;14.10;56.90;;;;;;4991829;28;20057;-73
2022/03/09 11:47:58;;;;;;;43.97;22.30;;;14.10;56.70;;;;;;5000208;28;20054;-74
2022/03/09 11:50:25;;;;;;;40.65;21.90;;;14.30;56.50;;;;;;5009936;28;20100;-73
2022/03/09 11:53:09;;;;;;;43.40;21.27;;;14.30;56.50;;;;;;5009562;28;20431;-73
2022/03/09 11:55:36;;;;;;;46.35;22.40;;;14.40;56.20;;;;;;5008434;28;20029;-73
2022/03/09 11:58:08;;;;;;;49.25;23.15;;;14.40;56.10;;;;;;5007664;28;20022;-73
2022/03/09 12:00:57;;;;;;;42.65;21.70;;;14.50;55.60;;;;;;4994985;28;20434;-73
2022/03/09 12:03:51;;;;;;;41.50;21.55;;;14.50;55.00;;;;;;4984819;28;20050;-73
2022/03/09 12:06:43;;;;;;;39.83;20.75;;;14.50;54.70;;;;;;5005776;28;20034;-73
2022/03/09 12:09:09;;;;;;;44.67;21.40;;;14.60;54.90;;;;;;5009110;28;20022;-73
2022/03/09 12:12:10;;;;;;;45.05;22.90;;;14.70;55.10;;;;;;5007059;28;20030;-72
2022/03/09 12:15:05;;;;;;;43.13;21.95;;;14.80;54.70;;;;;;4891805;29;20516;-73
2022/03/09 12:17:38;;;;;;;44.42;22.60;;;14.80;54.80;;;;;;4883210;29;20053;-73
2022/03/09 12:20:32;;;;;;;43.22;22.85;;;14.80;54.90;;;;;;4900128;29;20036;-73
2022/03/09 12:22:59;;;;;;;43.90;22.80;;;14.90;54.70;;;;;;4910278;29;20135;-73
2022/03/09 12:25:47;;;;;;;42.08;22.45;;;15.00;54.50;;;;;;4909889;29;20035;-73
2022/03/09 12:28:41;;;;;;;44.28;22.65;;;15.10;54.30;;;;;;4910572;29;20028;-73
2022/03/09 12:31:09;;;;;;;44.45;21.73;;;15.10;54.10;;;;;;4905659;29;20068;-73
2022/03/09 12:33:37;;;;;;;47.70;22.98;;;15.10;54.10;;;;;;4910535;29;20027;-73
2022/03/09 12:36:14;;;;;;;48.22;22.20;;;15.10;54.00;;;;;;4895932;29;20087;-73